Time;durP1;ratioP1;P1;durP2;ratioP2;P2;SDS_P1;SDS_P2;PMS_P1;PMS_P2;Temp;Humidity;BMP_temperature;BMP_pressure;BME280_temperature;BME280_humidity;BME280_pressure;Samples;Min_cycle;Max_cycle;Signal;HPM_P1;HPM_P2
2023/05/08 00:00:15;;;;;;;2.87;1.77;;;13.40;65.10;;;;;;5004840;28;20225;-64
2023/05/08 00:02:42;;;;;;;1.37;1.27;;;13.40;65.00;;;;;;4995141;28;20204;-65
2023/05/08 00:05:10;;;;;;;1.77;1.40;;;13.40;65.10;;;;;;5006828;28;20444;-64
2023/05/08 00:07:37;;;;;;;2.00;1.37;;;13.40;65.20;;;;;;5007459;28;20301;-65
2023/05/08 00:10:07;;;;;;;1.93;1.80;;;13.40;65.20;;;;;;5005601;28;20287;-65
2023/05/08 00:12:34;;;;;;;1.73;1.50;;;13.40;65.30;;;;;;5008189;28;20200;-64
2023/05/08 00:15:01;;;;;;;1.43;1.33;;;13.40;65.30;;;;;;5008331;28;20288;-64
2023/05/08 00:17:29;;;;;;;2.10;1.47;;;13.40;65.40;;;;;;5008182;28;20197;-65
2023/05/08 00:19:56;;;;;;;1.57;1.47;;;13.30;65.30;;;;;;5007227;28;20538;-66
2023/05/08 00:22:24;;;;;;;1.93;1.40;;;13.30;65.40;;;;;;5006311;28;20561;-65
2023/05/08 00:24:51;;;;;;;2.50;1.70;;;13.30;65.50;;;;;;5008531;28;20196;-65
2023/05/08 00:27:19;;;;;;;1.77;1.50;;;13.20;65.50;;;;;;5008523;28;20259;-66
2023/05/08 00:29:49;;;;;;;1.60;1.50;;;13.10;65.70;;;;;;5007390;28;20835;-66
2023/05/08 00:32:17;;;;;;;1.53;1.40;;;13.10;65.90;;;;;;5005122;28;20206;-66
2023/05/08 00:34:44;;;;;;;1.90;1.63;;;13.00;66.00;;;;;;5006962;28;20274;-65
2023/05/08 00:37:11;;;;;;;2.60;1.43;;;13.00;66.10;;;;;;5007114;28;20289;-66
2023/05/08 00:39:38;;;;;;;2.30;1.40;;;13.00;66.30;;;;;;5008468;28;20202;-65
2023/05/08 00:42:05;;;;;;;2.07;1.53;;;13.00;66.30;;;;;;5004789;28;20192;-65
2023/05/08 00:44:34;;;;;;;2.37;1.50;;;13.00;66.50;;;;;;5009291;28;20454;-65
2023/05/08 00:47:01;;;;;;;2.10;1.60;;;12.90;66.40;;;;;;5005515;28;20278;-65
2023/05/08 00:49:28;;;;;;;1.30;1.20;;;12.90;66.60;;;;;;5007463;28;20195;-65
2023/05/08 00:51:56;;;;;;;2.07;1.30;;;12.90;66.60;;;;;;5006942;28;20246;-64
2023/05/08 00:54:24;;;;;;;2.00;1.10;;;12.80;66.60;;;;;;5007780;28;20533;-65
2023/05/08 00:56:52;;;;;;;1.43;1.20;;;12.80;66.80;;;;;;5007495;28;20277;-65
2023/05/08 00:59:21;;;;;;;1.33;1.23;;;12.80;66.90;;;;;;4995953;28;20204;-65
2023/05/08 01:01:54;;;;;;;1.30;1.20;;;12.80;66.90;;;;;;5445669;23;20225;-68
2023/05/08 01:04:25;;;;;;;1.23;1.13;;;12.80;66.90;;;;;;4975431;28;20213;-69
2023/05/08 01:06:52;;;;;;;1.13;1.03;;;12.80;66.90;;;;;;4995090;28;20275;-69
2023/05/08 01:09:19;;;;;;;1.17;1.00;;;12.90;67.20;;;;;;4992364;28;20663;-70
2023/05/08 01:12:02;;;;;;;0.90;0.90;;;12.90;67.10;;;;;;5001769;28;20365;-70
2023/05/08 01:14:37;;;;;;;1.20;1.10;;;12.80;67.00;;;;;;5006790;28;20205;-68
2023/05/08 01:17:15;;;;;;;1.47;1.23;;;12.90;67.20;;;;;;4981894;28;20653;-69
2023/05/08 01:20:02;;;;;;;1.50;1.17;;;12.90;67.30;;;;;;4984877;28;20726;-69
2023/05/08 01:22:53;;;;;;;1.00;1.00;;;12.80;67.20;;;;;;4999993;28;20196;-69
2023/05/08 01:25:57;;;;;;;0.90;0.90;;;12.80;67.30;;;;;;4976511;28;20204;-70
2023/05/08 01:29:03;;;;;;;1.30;1.20;;;12.80;67.40;;;;;;4956701;28;20369;-69
2023/05/08 01:31:47;;;;;;;1.30;1.20;;;12.80;67.50;;;;;;4975931;28;20266;-69
2023/05/08 01:34:23;;;;;;;1.10;1.10;;;12.70;67.50;;;;;;5010202;28;20183;-69
2023/05/08 01:36:54;;;;;;;1.27;1.27;;;12.70;67.80;;;;;;4990233;28;20283;-70
2023/05/08 01:39:32;;;;;;;1.00;1.00;;;12.60;67.70;;;;;;4991919;28;20235;-68
2023/05/08 01:42:06;;;;;;;0.87;0.87;;;12.60;67.80;;;;;;4995270;28;20299;-68
2023/05/08 01:44:38;;;;;;;1.17;0.90;;;12.60;67.90;;;;;;5011514;28;20207;-69
2023/05/08 01:47:08;;;;;;;1.47;1.37;;;12.60;68.20;;;;;;5011280;28;20913;-68
2023/05/08 01:49:40;;;;;;;1.00;1.00;;;12.60;68.20;;;;;;5011432;28;20199;-68
2023/05/08 01:52:17;;;;;;;1.60;1.30;;;12.60;68.20;;;;;;5012333;28;20263;-68
2023/05/08 01:54:50;;;;;;;1.30;1.20;;;12.60;68.30;;;;;;5012173;28;20203;-67
2023/05/08 01:57:20;;;;;;;1.43;1.33;;;12.60;68.30;;;;;;4995202;28;20290;-70
2023/05/08 01:59:49;;;;;;;1.30;1.20;;;12.60;68.40;;;;;;4995141;28;20211;-69
2023/05/08 02:02:17;;;;;;;2.10;1.53;;;12.60;68.40;;;;;;4992899;28;20266;-68
2023/05/08 02:04:47;;;;;;;1.00;1.00;;;12.50;68.40;;;;;;5003480;28;20203;-68
2023/05/08 02:07:15;;;;;;;1.57;1.27;;;12.40;68.40;;;;;;4990658;28;20200;-68
2023/05/08 02:09:44;;;;;;;1.70;1.50;;;12.40;68.60;;;;;;5010938;28;20253;-69
2023/05/08 02:12:13;;;;;;;1.97;1.40;;;12.40;68.60;;;;;;5011509;28;20226;-70
2023/05/08 02:14:42;;;;;;;1.60;1.40;;;12.50;68.70;;;;;;5009622;28;20207;-70
2023/05/08 02:17:11;;;;;;;1.37;1.27;;;12.40;68.70;;;;;;5007766;28;20265;-69
2023/05/08 02:19:41;;;;;;;1.40;1.30;;;12.40;68.80;;;;;;5008703;28;20207;-68
2023/05/08 02:22:10;;;;;;;1.60;1.30;;;12.30;68.80;;;;;;4993042;28;20191;-70
2023/05/08 02:24:38;;;;;;;2.10;1.53;;;12.30;69.00;;;;;;5006626;28;20223;-68
2023/05/08 02:27:07;;;;;;;1.70;1.40;;;12.30;69.00;;;;;;4993636;28;20203;-69
2023/05/08 02:29:36;;;;;;;2.07;1.70;;;12.30;69.00;;;;;;5009310;28;20626;-69
2023/05/08 02:32:06;;;;;;;5.73;1.80;;;12.30;69.00;;;;;;5004051;28;20279;-69
2023/05/08 02:34:33;;;;;;;1.30;1.20;;;12.30;69.10;;;;;;5008632;28;20221;-70
2023/05/08 02:37:03;;;;;;;1.50;1.40;;;12.20;69.20;;;;;;5006827;28;20210;-70
2023/05/08 02:39:34;;;;;;;1.60;1.50;;;12.10;69.20;;;;;;4993944;28;20600;-70
2023/05/08 02:42:01;;;;;;;1.60;1.50;;;12.10;69.40;;;;;;5011897;28;20647;-68
2023/05/08 02:44:29;;;;;;;1.40;1.30;;;12.00;69.40;;;;;;4994420;28;20709;-69
2023/05/08 02:47:00;;;;;;;1.50;1.37;;;12.00;69.50;;;;;;4992810;28;20241;-68
2023/05/08 02:49:33;;;;;;;1.40;1.30;;;12.00;69.60;;;;;;5010031;28;20211;-69
2023/05/08 02:52:06;;;;;;;1.67;1.50;;;12.00;69.70;;;;;;4994102;28;20215;-69
2023/05/08 02:54:38;;;;;;;1.67;1.40;;;12.00;69.70;;;;;;5008091;28;20192;-69
2023/05/08 02:57:14;;;;;;;1.33;1.23;;;12.00;69.70;;;;;;4991486;28;20262;-68
2023/05/08 02:59:46;;;;;;;1.50;1.40;;;12.00;69.80;;;;;;5003111;28;21055;-70
2023/05/08 03:02:18;;;;;;;1.73;1.60;;;12.00;69.90;;;;;;5007645;28;20570;-69
2023/05/08 03:04:53;;;;;;;1.87;1.57;;;12.00;70.00;;;;;;4985169;28;20701;-70
2023/05/08 03:07:25;;;;;;;1.77;1.67;;;12.00;70.00;;;;;;5001494;28;20618;-69
2023/05/08 03:10:00;;;;;;;1.50;1.40;;;12.00;70.00;;;;;;5010736;28;20305;-69
2023/05/08 03:12:30;;;;;;;4.40;1.97;;;11.90;69.90;;;;;;4983412;28;20301;-69
2023/05/08 03:15:06;;;;;;;1.93;1.73;;;11.90;70.10;;;;;;4987256;28;20298;-69
2023/05/08 03:17:36;;;;;;;2.60;1.87;;;11.90;70.10;;;;;;4991513;28;20283;-69
2023/05/08 03:20:06;;;;;;;2.47;1.97;;;11.90;70.10;;;;;;4991304;28;20218;-70
2023/05/08 03:22:37;;;;;;;2.53;1.90;;;11.90;70.10;;;;;;4993277;28;20195;-69
2023/05/08 03:25:09;;;;;;;2.33;1.53;;;11.90;70.10;;;;;;4994016;28;20219;-69
2023/05/08 03:27:38;;;;;;;2.60;2.13;;;11.90;70.10;;;;;;4993653;28;20207;-68
2023/05/08 03:30:08;;;;;;;3.93;1.50;;;11.80;70.00;;;;;;4994085;28;20215;-70
2023/05/08 03:32:39;;;;;;;2.30;1.87;;;11.80;70.10;;;;;;4992026;28;20572;-69
2023/05/08 03:35:08;;;;;;;2.50;1.70;;;11.70;70.10;;;;;;4992246;28;20650;-69
2023/05/08 03:37:35;;;;;;;1.70;1.60;;;11.70;70.30;;;;;;4991669;28;20211;-69
2023/05/08 03:40:06;;;;;;;1.70;1.60;;;11.70;71.10;;;;;;4992692;28;20207;-69
2023/05/08 03:42:33;;;;;;;5.23;2.30;;;11.70;71.20;;;;;;4991367;28;20199;-69
2023/05/08 03:45:02;;;;;;;2.47;2.17;;;11.80;70.80;;;;;;4993213;28;20241;-68
2023/05/08 03:47:30;;;;;;;2.43;2.23;;;11.80;70.40;;;;;;4991696;28;20213;-68
2023/05/08 03:49:58;;;;;;;2.27;1.93;;;11.80;70.30;;;;;;4993579;28;20227;-67
2023/05/08 03:52:26;;;;;;;2.20;2.00;;;11.90;70.40;;;;;;4992273;28;20709;-67
2023/05/08 03:54:54;;;;;;;2.40;1.97;;;11.80;70.30;;;;;;4993633;28;20206;-69
2023/05/08 03:57:28;;;;;;;2.60;1.60;;;11.80;70.30;;;;;;4991109;28;20217;-69
2023/05/08 04:00:04;;;;;;;1.97;1.80;;;11.80;70.40;;;;;;5009796;28;20215;-69
2023/05/08 04:02:47;;;;;;;2.13;1.60;;;11.80;70.40;;;;;;5008482;28;20231;-68
2023/05/08 04:05:21;;;;;;;6.47;2.43;;;11.80;70.40;;;;;;4990227;28;20234;-69
2023/05/08 04:07:56;;;;;;;2.53;1.77;;;11.80;70.40;;;;;;4997863;28;20203;-68
2023/05/08 04:10:29;;;;;;;2.67;1.90;;;11.90;70.60;;;;;;4993935;28;20210;-68
2023/05/08 04:13:05;;;;;;;4.80;1.73;;;11.90;70.60;;;;;;5009752;28;20194;-69
2023/05/08 04:15:36;;;;;;;3.03;2.03;;;11.90;70.60;;;;;;5004189;28;20208;-68
2023/05/08 04:18:06;;;;;;;2.40;1.90;;;11.90;70.60;;;;;;5008308;28;20194;-69
2023/05/08 04:20:34;;;;;;;2.27;2.07;;;12.00;70.90;;;;;;5007411;28;20249;-68
2023/05/08 04:23:03;;;;;;;5.50;2.73;;;12.00;70.70;;;;;;4992620;28;20303;-70
2023/05/08 04:25:33;;;;;;;4.97;3.50;;;12.00;70.70;;;;;;4990013;28;20220;-68
2023/05/08 04:28:02;;;;;;;7.40;4.07;;;12.00;70.70;;;;;;5001170;28;20193;-69
2023/05/08 04:30:31;;;;;;;8.90;4.73;;;12.00;70.70;;;;;;4994586;28;20674;-69
2023/05/08 04:32:59;;;;;;;12.30;5.43;;;12.00;70.90;;;;;;4993465;28;20281;-69
2023/05/08 04:35:26;;;;;;;15.80;5.63;;;12.10;71.10;;;;;;4992023;28;20556;-68
2023/05/08 04:37:53;;;;;;;12.07;5.90;;;12.10;71.00;;;;;;4991080;28;20559;-68
2023/05/08 04:40:20;;;;;;;11.33;5.80;;;12.20;71.20;;;;;;4991717;28;20566;-69
2023/05/08 04:42:47;;;;;;;11.57;6.20;;;12.10;70.90;;;;;;4989027;28;20203;-69
2023/05/08 04:45:19;;;;;;;10.53;5.90;;;12.30;71.10;;;;;;4992058;28;20285;-70
2023/05/08 04:47:46;;;;;;;8.77;5.33;;;12.30;71.10;;;;;;5009415;28;20207;-68
2023/05/08 04:50:13;;;;;;;9.13;5.10;;;12.40;71.20;;;;;;4994174;28;20215;-69
2023/05/08 04:52:40;;;;;;;10.43;5.90;;;12.40;71.20;;;;;;5008724;28;20217;-70
2023/05/08 04:55:09;;;;;;;11.33;6.03;;;12.50;71.30;;;;;;5000093;28;20699;-70
2023/05/08 04:57:38;;;;;;;14.00;6.07;;;12.50;71.10;;;;;;5010945;28;20211;-70
2023/05/08 05:00:07;;;;;;;14.00;6.87;;;12.60;71.10;;;;;;5002378;28;20226;-69
2023/05/08 05:02:40;;;;;;;13.40;5.80;;;12.60;70.90;;;;;;4991033;28;20711;-68
2023/05/08 05:05:08;;;;;;;8.10;4.70;;;12.60;70.50;;;;;;4994595;28;20231;-68
2023/05/08 05:07:35;;;;;;;8.60;5.07;;;12.60;70.10;;;;;;4996230;28;20203;-69
2023/05/08 05:10:03;;;;;;;9.13;3.87;;;12.70;70.00;;;;;;5007885;28;20219;-69
2023/05/08 05:12:32;;;;;;;8.80;4.40;;;12.70;69.70;;;;;;5005080;28;20626;-69
2023/05/08 05:14:59;;;;;;;8.00;4.47;;;12.80;69.30;;;;;;4992866;28;20223;-68
2023/05/08 05:17:30;;;;;;;9.53;4.33;;;12.80;68.90;;;;;;4999060;28;20207;-68
2023/05/08 05:19:59;;;;;;;7.10;4.17;;;12.80;68.40;;;;;;4995648;28;20223;-69
2023/05/08 05:22:27;;;;;;;5.43;3.70;;;12.80;68.10;;;;;;5001003;28;20196;-68
2023/05/08 05:24:54;;;;;;;8.23;4.13;;;12.80;68.00;;;;;;4992644;28;20215;-69
2023/05/08 05:27:21;;;;;;;10.00;4.87;;;12.80;67.90;;;;;;5012633;28;20215;-69
2023/05/08 05:29:49;;;;;;;7.37;4.60;;;12.80;67.80;;;;;;4995757;28;20698;-69
2023/05/08 05:32:16;;;;;;;7.73;4.73;;;12.90;67.80;;;;;;4995271;28;20262;-70
2023/05/08 05:34:44;;;;;;;6.67;3.90;;;12.90;67.60;;;;;;4995652;28;20218;-70
2023/05/08 05:37:12;;;;;;;5.77;3.20;;;12.90;67.60;;;;;;4990220;28;20258;-70
2023/05/08 05:39:40;;;;;;;8.17;3.73;;;12.90;67.60;;;;;;5001653;28;20224;-69
2023/05/08 05:42:07;;;;;;;9.63;4.37;;;13.00;67.70;;;;;;5002133;28;20290;-69
2023/05/08 05:44:34;;;;;;;10.73;4.97;;;13.00;67.60;;;;;;5008078;28;20212;-69
2023/05/08 05:47:03;;;;;;;9.37;4.87;;;13.10;67.60;;;;;;5011755;28;20729;-69
2023/05/08 05:49:31;;;;;;;10.80;4.43;;;13.10;67.50;;;;;;4994930;28;20596;-69
2023/05/08 05:51:58;;;;;;;11.17;5.23;;;13.10;67.60;;;;;;4994288;28;20203;-70
2023/05/08 05:54:27;;;;;;;16.13;6.30;;;13.20;67.40;;;;;;4991757;28;20268;-69
2023/05/08 05:56:55;;;;;;;17.30;6.30;;;13.20;67.60;;;;;;4992791;28;20535;-70
2023/05/08 05:59:22;;;;;;;12.70;5.10;;;13.20;67.10;;;;;;4994848;28;20203;-71
2023/05/08 06:01:49;;;;;;;8.50;4.70;;;13.30;67.20;;;;;;4993462;28;20237;-70
2023/05/08 06:04:18;;;;;;;12.27;4.80;;;13.30;67.20;;;;;;4993754;28;20290;-70
2023/05/08 06:06:45;;;;;;;9.47;4.67;;;13.40;67.50;;;;;;4997451;28;20227;-70
2023/05/08 06:09:12;;;;;;;9.40;4.90;;;13.40;67.30;;;;;;4994899;28;20228;-69
2023/05/08 06:11:40;;;;;;;6.00;3.90;;;13.40;67.30;;;;;;5009131;28;20211;-69
2023/05/08 06:14:08;;;;;;;12.57;4.60;;;13.50;67.30;;;;;;4992950;28;20263;-70
2023/05/08 06:16:36;;;;;;;8.60;4.67;;;13.50;67.40;;;;;;4988692;28;20216;-69
2023/05/08 06:19:03;;;;;;;8.87;5.17;;;13.60;67.50;;;;;;5010245;28;20204;-69
2023/05/08 06:21:33;;;;;;;9.17;4.93;;;13.70;67.60;;;;;;5002138;28;21514;-68
2023/05/08 06:24:00;;;;;;;8.47;5.00;;;13.70;67.40;;;;;;5006541;28;20472;-68
2023/05/08 06:26:27;;;;;;;13.60;4.77;;;13.80;67.40;;;;;;4993448;28;20227;-69
2023/05/08 06:28:56;;;;;;;8.63;4.80;;;13.80;67.40;;;;;;4993637;28;20322;-69
2023/05/08 06:31:23;;;;;;;8.70;4.97;;;13.90;67.50;;;;;;5009834;28;20263;-68
2023/05/08 06:33:50;;;;;;;9.27;4.37;;;14.00;67.60;;;;;;5007406;28;20261;-69
2023/05/08 06:36:17;;;;;;;6.77;3.60;;;14.00;67.50;;;;;;5008411;28;20207;-69
2023/05/08 06:38:45;;;;;;;8.20;3.90;;;14.10;67.50;;;;;;5010823;28;20278;-69
2023/05/08 06:41:12;;;;;;;7.67;4.30;;;14.20;67.50;;;;;;5009480;28;20206;-70
2023/05/08 06:43:39;;;;;;;9.00;4.60;;;14.30;67.30;;;;;;5004848;28;20251;-69
2023/05/08 06:46:07;;;;;;;7.27;3.70;;;14.30;67.00;;;;;;5007947;28;20270;-69
2023/05/08 06:48:34;;;;;;;7.87;3.80;;;14.40;66.90;;;;;;5002217;28;20284;-69
2023/05/08 06:51:02;;;;;;;8.53;4.63;;;14.50;66.90;;;;;;4993179;28;20688;-69
2023/05/08 06:53:33;;;;;;;7.57;4.90;;;14.50;66.60;;;;;;4999165;28;20561;-70
2023/05/08 06:56:00;;;;;;;5.33;3.70;;;14.60;66.20;;;;;;5007604;28;20196;-70
2023/05/08 06:58:28;;;;;;;6.50;3.20;;;14.70;66.10;;;;;;5009017;28;20201;-69
2023/05/08 07:00:55;;;;;;;7.17;3.73;;;14.80;66.10;;;;;;5006728;28;20217;-68
2023/05/08 07:03:23;;;;;;;4.13;3.40;;;14.90;65.90;;;;;;5001238;28;20600;-70
2023/05/08 07:05:50;;;;;;;5.83;3.50;;;15.00;66.00;;;;;;4990737;28;20572;-68
2023/05/08 07:08:17;;;;;;;6.17;4.37;;;15.10;65.70;;;;;;5003052;28;20450;-70
2023/05/08 07:10:44;;;;;;;6.00;4.37;;;15.10;65.30;;;;;;4986710;28;20384;-70
2023/05/08 07:13:13;;;;;;;7.87;4.17;;;15.20;64.80;;;;;;4991664;28;20662;-70
2023/05/08 07:15:40;;;;;;;9.37;4.27;;;15.30;65.10;;;;;;5008200;28;20248;-70
2023/05/08 07:18:07;;;;;;;5.47;3.47;;;15.40;64.50;;;;;;4977789;28;20279;-70
2023/05/08 07:20:36;;;;;;;6.17;4.20;;;16.20;65.30;;;;;;5003157;28;20632;-70
2023/05/08 07:23:03;;;;;;;6.90;4.50;;;15.60;64.40;;;;;;4990454;28;20202;-69
2023/05/08 07:25:32;;;;;;;6.97;3.73;;;15.70;63.80;;;;;;5007173;28;20637;-71
2023/05/08 07:27:59;;;;;;;4.10;3.70;;;15.80;63.60;;;;;;5003263;28;20199;-70
2023/05/08 07:30:26;;;;;;;2.77;2.47;;;15.90;64.10;;;;;;5008803;28;20218;-71
2023/05/08 07:32:54;;;;;;;9.03;3.20;;;15.90;63.20;;;;;;5003721;28;20195;-69
2023/05/08 07:35:21;;;;;;;4.33;2.27;;;16.00;63.00;;;;;;5007795;28;20664;-71
2023/05/08 07:37:49;;;;;;;1.97;1.87;;;16.10;63.00;;;;;;5007378;28;20210;-71
2023/05/08 07:40:16;;;;;;;5.50;2.50;;;16.20;62.90;;;;;;5007998;28;20199;-70
2023/05/08 07:42:45;;;;;;;1.97;1.70;;;16.20;62.70;;;;;;4997953;28;20199;-69
2023/05/08 07:45:13;;;;;;;3.10;2.07;;;16.30;62.90;;;;;;5009021;28;20526;-69
2023/05/08 07:47:49;;;;;;;5.60;3.13;;;16.40;63.00;;;;;;5004575;28;20689;-69
2023/05/08 07:50:16;;;;;;;3.43;3.10;;;16.50;62.90;;;;;;4999626;28;20642;-69
2023/05/08 07:52:43;;;;;;;3.20;2.90;;;16.60;62.10;;;;;;5007603;28;20199;-70
2023/05/08 07:55:12;;;;;;;3.13;2.70;;;16.70;61.50;;;;;;5003902;28;20207;-71
2023/05/08 07:57:40;;;;;;;4.37;2.90;;;16.80;61.00;;;;;;4983354;28;20292;-70
2023/05/08 08:00:09;;;;;;;5.40;2.53;;;16.90;60.10;;;;;;5005539;28;20257;-70
2023/05/08 08:02:44;;;;;;;3.57;2.13;;;17.00;59.80;;;;;;4991795;28;20226;-69
2023/05/08 08:05:12;;;;;;;2.63;2.43;;;17.10;59.60;;;;;;4998101;28;20665;-70
2023/05/08 08:07:39;;;;;;;2.97;1.90;;;17.20;59.10;;;;;;5002479;28;20364;-70
2023/05/08 08:10:11;;;;;;;1.80;1.70;;;17.30;59.40;;;;;;5006684;28;20243;-71
2023/05/08 08:12:39;;;;;;;2.67;2.20;;;17.40;59.60;;;;;;5002373;28;20546;-71
2023/05/08 08:15:07;;;;;;;2.83;2.53;;;17.40;59.40;;;;;;5008331;28;20227;-71
2023/05/08 08:17:35;;;;;;;1.70;1.60;;;17.50;59.30;;;;;;4987071;28;20709;-69
2023/05/08 08:20:02;;;;;;;1.50;1.40;;;17.70;58.70;;;;;;4992780;28;20215;-69
2023/05/08 08:22:29;;;;;;;1.17;1.17;;;17.70;58.70;;;;;;4988028;28;20204;-71
2023/05/08 08:24:56;;;;;;;5.37;2.10;;;17.80;58.40;;;;;;5008424;28;20282;-70
2023/05/08 08:27:24;;;;;;;1.70;1.60;;;17.90;57.00;;;;;;5000351;28;20195;-71
2023/05/08 08:29:52;;;;;;;2.90;1.70;;;17.90;55.60;;;;;;5005504;28;20229;-72
2023/05/08 08:32:19;;;;;;;2.10;1.13;;;18.00;55.40;;;;;;4985246;28;20196;-72
2023/05/08 08:34:46;;;;;;;1.70;1.40;;;18.10;54.20;;;;;;5002557;28;20194;-70
2023/05/08 08:37:17;;;;;;;2.40;1.17;;;18.10;53.10;;;;;;5000288;28;20292;-67
2023/05/08 08:39:44;;;;;;;1.60;1.50;;;18.20;52.90;;;;;;5007884;28;20198;-67
2023/05/08 08:42:11;;;;;;;1.67;1.57;;;18.20;52.00;;;;;;5007346;28;20283;-66
2023/05/08 08:44:38;;;;;;;1.47;1.40;;;18.30;52.40;;;;;;4982576;28;20203;-66
2023/05/08 08:47:10;;;;;;;1.60;1.50;;;18.30;52.40;;;;;;5006042;28;20284;-66
2023/05/08 08:49:43;;;;;;;2.35;1.88;;;18.40;51.80;;;;;;5004132;28;20297;-67
2023/05/08 08:52:19;;;;;;;1.70;1.60;;;18.50;49.60;;;;;;5006619;28;20221;-65
2023/05/08 08:54:49;;;;;;;1.70;1.60;;;18.50;49.60;;;;;;5006715;28;20225;-66
2023/05/08 08:57:17;;;;;;;1.67;1.30;;;18.60;50.00;;;;;;4988539;28;20223;-67
2023/05/08 08:59:44;;;;;;;1.67;1.58;;;18.70;50.10;;;;;;5007604;28;20184;-66
2023/05/08 09:02:19;;;;;;;2.10;1.90;;;18.80;49.20;;;;;;4984498;28;20234;-65
2023/05/08 09:04:49;;;;;;;2.30;1.90;;;18.80;47.90;;;;;;4998633;28;20207;-66
2023/05/08 09:07:17;;;;;;;3.92;1.70;;;18.80;46.70;;;;;;5006118;28;20197;-66
2023/05/08 09:09:47;;;;;;;2.22;1.30;;;18.80;44.50;;;;;;5007937;28;20216;-66
2023/05/08 09:12:14;;;;;;;1.45;1.35;;;20.70;45.60;;;;;;5007038;28;20209;-67
2023/05/08 09:14:42;;;;;;;1.00;1.00;;;18.90;45.00;;;;;;5003265;28;20198;-66
2023/05/08 09:17:09;;;;;;;1.35;1.27;;;18.90;45.30;;;;;;4991361;28;20206;-66
2023/05/08 09:19:38;;;;;;;1.97;1.23;;;19.00;45.30;;;;;;5007537;28;20235;-66
2023/05/08 09:22:08;;;;;;;2.47;1.98;;;19.10;45.50;;;;;;5007246;28;20649;-65
2023/05/08 09:24:58;;;;;;;2.08;1.88;;;19.20;45.30;;;;;;5005613;28;20202;-65
2023/05/08 09:27:26;;;;;;;1.73;1.63;;;19.20;45.50;;;;;;5005171;28;20221;-66
2023/05/08 09:30:02;;;;;;;1.17;1.17;;;19.30;45.00;;;;;;4992155;28;20221;-66
2023/05/08 09:32:30;;;;;;;1.38;0.90;;;19.30;45.50;;;;;;5005498;28;20545;-66
2023/05/08 09:34:59;;;;;;;1.30;1.10;;;19.40;45.80;;;;;;4991410;28;20215;-65
2023/05/08 09:37:28;;;;;;;2.03;1.80;;;19.60;46.30;;;;;;5005758;28;20685;-66
2023/05/08 09:40:12;;;;;;;2.38;2.17;;;19.70;46.60;;;;;;4999470;28;20651;-67
2023/05/08 09:42:39;;;;;;;2.65;1.90;;;19.80;46.80;;;;;;5004250;28;20199;-66
2023/05/08 09:45:07;;;;;;;2.15;1.83;;;19.80;46.90;;;;;;5008014;28;20241;-66
2023/05/08 09:47:36;;;;;;;1.83;1.70;;;19.80;46.20;;;;;;5006132;28;20206;-67
2023/05/08 09:50:06;;;;;;;2.10;1.60;;;19.90;46.30;;;;;;5004739;28;20582;-66
2023/05/08 09:52:34;;;;;;;1.13;1.13;;;19.90;46.50;;;;;;4987537;28;20199;-68
2023/05/08 09:55:02;;;;;;;1.27;1.17;;;20.10;47.20;;;;;;5010629;28;20565;-66
2023/05/08 09:57:31;;;;;;;1.00;1.00;;;20.20;47.20;;;;;;5003008;28;20510;-66
2023/05/08 10:00:04;;;;;;;1.20;1.10;;;20.20;47.50;;;;;;5011170;28;20511;-67
2023/05/08 10:02:34;;;;;;;1.00;1.00;;;20.30;47.40;;;;;;5004705;28;20297;-67
2023/05/08 10:05:22;;;;;;;0.98;0.98;;;20.30;47.30;;;;;;5011847;28;20203;-67
2023/05/08 10:07:49;;;;;;;1.00;1.00;;;20.40;47.40;;;;;;5011403;28;20212;-66
2023/05/08 10:10:24;;;;;;;0.93;0.93;;;20.50;47.30;;;;;;5011698;28;20203;-67
2023/05/08 10:12:52;;;;;;;1.10;1.10;;;20.60;47.10;;;;;;5008897;28;20187;-67
2023/05/08 10:15:21;;;;;;;1.13;1.10;;;20.20;62.20;;;;;;5012502;28;20199;-68
2023/05/08 10:17:54;;;;;;;1.45;1.35;;;20.70;47.40;;;;;;5007156;28;20666;-67
2023/05/08 10:20:25;;;;;;;1.42;1.33;;;20.70;47.00;;;;;;5012068;28;20283;-67
2023/05/08 10:22:54;;;;;;;3.03;1.60;;;20.80;46.80;;;;;;5011218;28;20226;-67
2023/05/08 10:25:23;;;;;;;1.85;1.50;;;20.80;46.30;;;;;;5012692;28;20682;-67
2023/05/08 10:27:56;;;;;;;2.05;1.70;;;20.80;44.50;;;;;;5011295;28;20657;-65
2023/05/08 10:30:26;;;;;;;2.13;1.90;;;20.70;43.00;;;;;;5012201;28;20689;-66
2023/05/08 10:32:54;;;;;;;3.47;2.22;;;20.60;42.90;;;;;;5005484;28;20204;-67
2023/05/08 10:35:23;;;;;;;1.80;1.70;;;20.60;43.20;;;;;;5009626;28;20278;-66
2023/05/08 10:37:51;;;;;;;2.05;1.88;;;20.60;43.20;;;;;;4986375;28;20219;-67
2023/05/08 10:40:20;;;;;;;2.10;1.90;;;20.60;43.50;;;;;;5012283;28;20195;-66
2023/05/08 10:42:48;;;;;;;1.92;1.80;;;20.70;44.20;;;;;;5000892;28;20397;-66
2023/05/08 10:45:15;;;;;;;2.25;1.77;;;20.80;44.20;;;;;;4993949;28;20278;-65
2023/05/08 10:47:56;;;;;;;2.10;1.90;;;20.80;43.20;;;;;;4987168;28;20213;-67
2023/05/08 10:50:35;;;;;;;2.78;1.90;;;20.80;43.00;;;;;;5008876;28;20286;-66
2023/05/08 10:53:06;;;;;;;2.03;1.83;;;20.80;43.20;;;;;;4983845;28;20278;-66
2023/05/08 10:55:37;;;;;;;3.28;2.13;;;20.80;43.00;;;;;;4994943;28;20215;-67
2023/05/08 10:58:06;;;;;;;3.83;2.08;;;20.80;43.10;;;;;;4999521;28;20564;-67
2023/05/08 11:01:12;;;;;;;2.00;1.80;;;20.80;42.90;;;;;;5002246;28;20203;-66
2023/05/08 11:03:41;;;;;;;8.63;2.00;;;20.80;42.50;;;;;;5006995;28;20227;-66
2023/05/08 11:06:13;;;;;;;2.38;2.17;;;20.90;41.70;;;;;;5008688;28;20667;-66
2023/05/08 11:08:48;;;;;;;2.55;1.75;;;20.80;41.70;;;;;;5008395;28;20291;-67
2023/05/08 11:11:27;;;;;;;2.20;1.80;;;20.80;41.40;;;;;;5010023;28;20199;-66
2023/05/08 11:14:13;;;;;;;2.20;2.03;;;20.80;41.40;;;;;;5011355;28;20195;-65
2023/05/08 11:17:05;;;;;;;2.45;2.05;;;20.90;41.00;;;;;;5009808;28;20270;-66
2023/05/08 11:19:32;;;;;;;2.42;1.80;;;20.90;41.10;;;;;;5011067;28;20794;-67
2023/05/08 11:22:15;;;;;;;2.42;2.00;;;21.00;40.60;;;;;;4998834;28;20191;-66
2023/05/08 11:24:48;;;;;;;3.53;1.52;;;21.00;40.30;;;;;;5011653;28;20202;-67
2023/05/08 11:27:15;;;;;;;2.78;1.80;;;21.00;40.30;;;;;;5011578;28;20195;-67
2023/05/08 11:29:43;;;;;;;2.05;1.60;;;21.00;39.90;;;;;;5011125;28;20237;-66
2023/05/08 11:32:10;;;;;;;1.58;1.48;;;21.10;40.30;;;;;;5010131;28;20220;-66
2023/05/08 11:34:48;;;;;;;2.03;1.83;;;21.10;40.30;;;;;;5011100;28;20689;-66
2023/05/08 11:37:21;;;;;;;2.50;1.95;;;21.20;39.90;;;;;;4992975;28;20203;-67
2023/05/08 11:39:48;;;;;;;2.38;2.05;;;21.20;39.60;;;;;;5010579;28;20195;-66
2023/05/08 11:42:34;;;;;;;2.00;1.80;;;21.20;39.60;;;;;;5008953;28;20192;-67
2023/05/08 11:45:05;;;;;;;2.88;1.80;;;21.10;39.30;;;;;;5010491;28;20255;-67
2023/05/08 11:47:38;;;;;;;1.80;1.70;;;21.10;39.50;;;;;;4999288;28;20208;-66
2023/05/08 11:50:06;;;;;;;1.70;1.58;;;21.20;39.90;;;;;;5009903;28;20187;-67
2023/05/08 11:52:36;;;;;;;4.35;1.70;;;21.30;39.60;;;;;;5010548;28;20232;-66
2023/05/08 11:55:07;;;;;;;2.03;1.63;;;21.30;39.40;;;;;;5010173;28;20194;-66
2023/05/08 11:57:35;;;;;;;1.80;1.50;;;21.30;39.30;;;;;;5010792;28;20278;-67
2023/05/08 12:00:06;;;;;;;2.35;1.98;;;21.30;39.60;;;;;;5007664;28;20250;-67
2023/05/08 12:02:39;;;;;;;2.08;1.70;;;21.30;39.40;;;;;;5009699;28;20227;-66
2023/05/08 12:05:11;;;;;;;4.05;1.63;;;21.70;51.70;;;;;;4994462;28;20682;-66
2023/05/08 12:07:45;;;;;;;2.60;1.80;;;21.80;42.90;;;;;;5009658;28;20666;-67
2023/05/08 12:10:12;;;;;;;4.00;1.75;;;21.40;38.90;;;;;;5010620;28;20197;-66
2023/05/08 12:12:40;;;;;;;3.00;1.63;;;20.90;55.10;;;;;;5010322;28;20295;-66
2023/05/08 12:15:10;;;;;;;2.65;2.00;;;21.40;38.60;;;;;;5010423;28;20195;-66
2023/05/08 12:17:37;;;;;;;1.33;1.33;;;21.40;41.50;;;;;;5008319;28;20200;-67
2023/05/08 12:20:12;;;;;;;2.80;2.13;;;21.40;53.20;;;;;;4993497;28;20195;-66
2023/05/08 12:22:40;;;;;;;1.98;1.77;;;21.30;51.70;;;;;;5007971;28;20195;-66
2023/05/08 12:25:11;;;;;;;2.22;1.80;;;21.60;38.40;;;;;;4991336;28;20220;-66
2023/05/08 12:27:39;;;;;;;2.47;1.95;;;21.60;37.90;;;;;;5008972;28;20573;-66
2023/05/08 12:30:09;;;;;;;4.93;1.73;;;21.50;37.60;;;;;;4992519;28;20282;-67
2023/05/08 12:32:38;;;;;;;1.83;1.70;;;21.50;37.40;;;;;;4992588;28;20669;-67
2023/05/08 12:35:06;;;;;;;3.60;1.60;;;21.50;37.60;;;;;;5010076;28;20203;-66
2023/05/08 12:37:33;;;;;;;1.95;1.80;;;21.50;37.70;;;;;;5009076;28;20536;-67
2023/05/08 12:40:00;;;;;;;1.80;1.70;;;21.50;37.50;;;;;;5010133;28;20227;-66
2023/05/08 12:42:45;;;;;;;4.63;1.73;;;21.60;48.30;;;;;;5010193;28;20218;-66
2023/05/08 12:45:19;;;;;;;2.65;2.10;;;21.60;37.60;;;;;;5008861;28;20195;-66
2023/05/08 12:47:47;;;;;;;3.03;1.80;;;22.40;38.40;;;;;;4996360;28;20672;-66
2023/05/08 12:50:15;;;;;;;1.80;1.70;;;21.60;37.60;;;;;;5010548;28;20199;-67
2023/05/08 12:52:42;;;;;;;2.03;1.75;;;21.60;37.90;;;;;;5009679;28;20218;-66
2023/05/08 12:55:24;;;;;;;2.85;1.60;;;21.60;37.90;;;;;;5010003;28;20250;-67
2023/05/08 12:58:02;;;;;;;1.83;1.67;;;21.60;37.80;;;;;;5009436;28;20219;-66
2023/05/08 13:00:38;;;;;;;1.70;1.60;;;21.60;37.40;;;;;;5010544;28;20199;-66